createdAt,value
2023-03-16T00:00:50.099Z,97397.13
2023-03-16T00:03:16.532Z,97419.44
2023-03-16T00:05:42.945Z,97424.75
2023-03-16T00:08:09.458Z,97410.50
2023-03-16T00:10:35.955Z,97411.31
2023-03-16T00:13:02.431Z,97405.63
2023-03-16T00:15:28.864Z,97424.31
2023-03-16T00:17:55.470Z,97423.13
2023-03-16T00:20:21.881Z,97410.31
2023-03-16T00:22:48.367Z,97401.75
2023-03-16T00:25:14.825Z,97418.84
2023-03-16T00:27:41.360Z,97424.50
2023-03-16T00:30:08.299Z,97452.13
2023-03-16T00:32:35.608Z,97414.72
2023-03-16T00:35:02.423Z,97414.13
2023-03-16T00:37:29.158Z,97411.06
2023-03-16T00:39:55.792Z,97404.97
2023-03-16T00:42:22.338Z,97413.94
2023-03-16T00:44:48.796Z,97422.63
2023-03-16T00:47:15.210Z,97432.16
2023-03-16T00:49:42.216Z,97448.00
2023-03-16T00:52:09.022Z,97443.72
2023-03-16T00:54:35.461Z,97449.00
2023-03-16T00:57:01.987Z,97414.69
2023-03-16T00:59:28.489Z,97443.25
2023-03-16T01:01:55.108Z,97447.72
2023-03-16T01:04:21.594Z,97452.22
2023-03-16T01:06:48.001Z,97438.81
2023-03-16T01:09:14.409Z,97432.75
2023-03-16T01:11:41.362Z,97420.34
2023-03-16T01:14:07.953Z,97437.19
2023-03-16T01:16:34.448Z,97441.44
2023-03-16T01:19:01.033Z,97432.09
2023-03-16T01:21:27.622Z,97440.84
2023-03-16T01:23:54.182Z,97416.50
2023-03-16T01:26:20.923Z,97410.75
2023-03-16T01:28:47.403Z,97406.13
2023-03-16T01:31:13.937Z,97423.78
2023-03-16T01:33:41.575Z,97417.28
2023-03-16T01:36:09.622Z,97418.84
2023-03-16T01:38:36.136Z,97404.00
2023-03-16T01:41:02.567Z,97423.50
2023-03-16T01:43:29.433Z,97434.91
2023-03-16T01:46:05.076Z,97425.28
2023-03-16T01:48:38.967Z,97394.88
2023-03-16T01:51:12.315Z,97408.84
2023-03-16T01:53:39.219Z,97384.88
2023-03-16T01:56:06.124Z,97417.97
2023-03-16T01:58:32.563Z,97419.78
2023-03-16T02:00:59.097Z,97403.72
2023-03-16T02:03:25.635Z,97412.41
2023-03-16T02:05:53.417Z,97384.22
2023-03-16T02:08:20.035Z,97408.53
2023-03-16T02:10:46.526Z,97426.03
2023-03-16T02:13:13.096Z,97409.78
2023-03-16T02:15:39.553Z,97422.31
2023-03-16T02:18:05.976Z,97392.88
2023-03-16T02:20:35.519Z,97398.97
2023-03-16T02:23:02.195Z,97389.84
2023-03-16T02:25:47.428Z,97430.81
2023-03-16T02:28:19.736Z,97402.38
2023-03-16T02:30:46.730Z,97404.81
2023-03-16T02:33:13.367Z,97415.34
2023-03-16T02:35:39.886Z,97412.72
2023-03-16T02:38:06.332Z,97413.31
2023-03-16T02:40:33.222Z,97408.78
2023-03-16T02:43:03.661Z,97414.44
2023-03-16T02:45:34.644Z,97382.69
2023-03-16T02:48:01.641Z,97406.78
2023-03-16T02:50:28.291Z,97385.88
2023-03-16T02:52:54.956Z,97380.28
2023-03-16T02:55:21.438Z,97402.66
2023-03-16T02:57:48.172Z,97414.56
2023-03-16T03:00:14.700Z,97387.44
2023-03-16T03:02:41.173Z,97420.25
2023-03-16T03:05:07.730Z,97388.72
2023-03-16T03:07:34.168Z,97418.84
2023-03-16T03:10:00.621Z,97426.25
2023-03-16T03:12:27.029Z,97444.50
2023-03-16T03:14:53.407Z,97438.78
2023-03-16T03:17:19.901Z,97445.50
2023-03-16T03:19:46.336Z,97404.81
2023-03-16T03:22:12.747Z,97448.06
2023-03-16T03:24:39.112Z,97399.47
2023-03-16T03:27:05.791Z,97450.84
2023-03-16T03:29:32.645Z,97425.91
2023-03-16T03:31:59.155Z,97425.94
2023-03-16T03:34:25.655Z,97433.69
2023-03-16T03:36:52.083Z,97449.50
2023-03-16T03:39:18.482Z,97441.09
2023-03-16T03:41:44.884Z,97419.09
2023-03-16T03:44:11.307Z,97440.28
2023-03-16T03:46:37.892Z,97421.25
2023-03-16T03:49:04.401Z,97424.91
2023-03-16T03:51:31.671Z,97426.75
2023-03-16T03:53:58.535Z,97441.44
2023-03-16T03:56:25.067Z,97430.69
2023-03-16T03:58:51.587Z,97439.03
2023-03-16T04:01:18.059Z,97414.25
2023-03-16T04:03:45.253Z,97438.41
2023-03-16T04:06:11.801Z,97430.94
2023-03-16T04:08:38.254Z,97416.16
2023-03-16T04:11:04.721Z,97418.16
2023-03-16T04:13:31.236Z,97424.88
2023-03-16T04:15:57.994Z,97436.88
2023-03-16T04:18:24.576Z,97421.44
2023-03-16T04:20:51.078Z,97407.19
2023-03-16T04:23:17.564Z,97414.66
2023-03-16T04:25:44.026Z,97439.03
2023-03-16T04:28:10.713Z,97425.22
2023-03-16T04:30:37.139Z,97451.84
2023-03-16T04:33:03.548Z,97450.44
2023-03-16T04:35:29.983Z,97421.78
2023-03-16T04:37:56.720Z,97432.94
2023-03-16T04:40:23.216Z,97432.75
2023-03-16T04:42:49.718Z,97446.22
2023-03-16T04:45:16.228Z,97422.84
2023-03-16T04:47:42.654Z,97432.38
2023-03-16T04:50:09.611Z,97432.38
2023-03-16T04:52:36.053Z,97437.44
2023-03-16T04:55:02.474Z,97419.94
2023-03-16T04:57:28.938Z,97432.34
2023-03-16T04:59:55.354Z,97411.03
2023-03-16T05:02:21.717Z,97447.34
2023-03-16T05:04:48.204Z,97417.50
2023-03-16T05:07:14.619Z,97414.47
2023-03-16T05:09:41.084Z,97422.44
2023-03-16T05:12:07.688Z,97411.03
2023-03-16T05:14:34.126Z,97413.25
2023-03-16T05:17:00.510Z,97403.72
2023-03-16T05:19:26.934Z,97420.81
2023-03-16T05:21:53.346Z,97387.69
2023-03-16T05:24:19.759Z,97402.72
2023-03-16T05:26:46.160Z,97405.91
2023-03-16T05:29:12.724Z,97435.78
2023-03-16T05:31:39.286Z,97415.88
2023-03-16T05:34:05.673Z,97428.50
2023-03-16T05:36:32.520Z,97421.00
2023-03-16T05:38:59.618Z,97413.66
2023-03-16T05:41:26.566Z,97409.19
2023-03-16T05:43:52.938Z,97416.06
2023-03-16T05:46:20.938Z,97428.91
2023-03-16T05:48:47.420Z,97422.81
2023-03-16T05:51:13.857Z,97427.06
2023-03-16T05:53:40.255Z,97391.09
2023-03-16T05:56:07.439Z,97416.53
2023-03-16T05:58:34.063Z,97424.25
2023-03-16T06:01:00.554Z,97421.59
2023-03-16T06:03:27.014Z,97434.81
2023-03-16T06:05:53.400Z,97401.72
2023-03-16T06:08:19.790Z,97404.75
2023-03-16T06:10:46.659Z,97432.97
2023-03-16T06:13:13.071Z,97410.44
2023-03-16T06:15:39.616Z,97433.84
2023-03-16T06:18:06.107Z,97419.44
2023-03-16T06:20:32.604Z,97417.84
2023-03-16T06:22:59.060Z,97399.34
2023-03-16T06:25:25.429Z,97426.78
2023-03-16T06:27:53.527Z,97427.63
2023-03-16T06:30:20.045Z,97434.94
2023-03-16T06:32:46.581Z,97419.72
2023-03-16T06:35:13.223Z,97438.63
2023-03-16T06:37:39.658Z,97416.66
2023-03-16T06:40:08.005Z,97419.91
2023-03-16T06:42:34.400Z,97411.16
2023-03-16T06:45:00.793Z,97403.44
2023-03-16T06:47:27.337Z,97436.19
2023-03-16T06:49:55.446Z,97413.41
2023-03-16T06:52:21.976Z,97424.81
2023-03-16T06:54:48.452Z,97406.50
2023-03-16T06:57:15.086Z,97420.31
2023-03-16T06:59:41.569Z,97414.84
2023-03-16T07:02:09.252Z,97434.75
2023-03-16T07:04:36.690Z,97422.53
2023-03-16T07:07:06.436Z,97433.31
2023-03-16T07:09:32.849Z,97420.50
2023-03-16T07:11:59.364Z,97432.72
2023-03-16T07:14:25.741Z,97454.09
2023-03-16T07:16:52.444Z,97429.66
2023-03-16T07:19:19.411Z,97455.31
2023-03-16T07:21:45.878Z,97411.13
2023-03-16T07:24:14.623Z,97467.28
2023-03-16T07:26:41.769Z,97444.88
2023-03-16T07:29:08.339Z,97437.75
2023-03-16T07:31:34.857Z,97460.72
2023-03-16T07:34:01.672Z,97445.66
2023-03-16T07:36:28.794Z,97463.69
2023-03-16T07:38:55.323Z,97468.59
2023-03-16T07:41:21.814Z,97473.03
2023-03-16T07:43:48.393Z,97468.72
2023-03-16T07:46:14.898Z,97461.72
2023-03-16T07:48:41.416Z,97471.50
2023-03-16T07:51:08.286Z,97466.97
2023-03-16T07:53:35.348Z,97470.47
2023-03-16T07:56:01.836Z,97471.78
2023-03-16T07:58:28.272Z,97489.38
2023-03-16T08:00:58.313Z,97476.28
2023-03-16T08:03:25.127Z,97481.81
2023-03-16T08:05:52.669Z,97480.72
2023-03-16T08:08:19.262Z,97489.03
2023-03-16T08:10:47.313Z,97502.31
2023-03-16T08:13:15.895Z,97510.94
2023-03-16T08:15:45.387Z,97493.25
2023-03-16T08:18:11.852Z,97477.09
2023-03-16T08:20:38.299Z,97497.00
2023-03-16T08:23:04.674Z,97483.13
2023-03-16T08:25:31.611Z,97487.78
2023-03-16T08:27:58.097Z,97503.59
2023-03-16T08:30:24.597Z,97493.59
2023-03-16T08:32:51.122Z,97489.19
2023-03-16T08:35:18.236Z,97475.47
2023-03-16T08:37:44.703Z,97485.09
2023-03-16T08:40:11.353Z,97479.84
2023-03-16T08:42:37.867Z,97491.94
2023-03-16T08:45:05.580Z,97473.75
2023-03-16T08:47:32.108Z,97480.88
2023-03-16T08:49:58.552Z,97482.91
2023-03-16T08:52:25.048Z,97459.88
2023-03-16T08:55:02.446Z,97514.81
2023-03-16T08:57:30.165Z,97483.19
2023-03-16T08:59:57.290Z,97480.69
2023-03-16T09:02:23.718Z,97482.88
2023-03-16T09:04:50.228Z,97474.09
2023-03-16T09:07:17.594Z,97465.06
2023-03-16T09:09:44.156Z,97473.78
2023-03-16T09:12:14.023Z,97458.28
2023-03-16T09:14:40.460Z,97465.59
2023-03-16T09:17:08.151Z,97481.88
2023-03-16T09:19:49.973Z,97466.22
2023-03-16T09:22:18.268Z,97464.59
2023-03-16T09:24:45.138Z,97458.06
2023-03-16T09:27:11.604Z,97455.84
2023-03-16T09:29:38.219Z,97468.66
2023-03-16T09:32:04.729Z,97478.84
2023-03-16T09:34:33.340Z,97464.41
2023-03-16T09:37:00.198Z,97459.09
2023-03-16T09:39:26.602Z,97451.28
2023-03-16T09:42:01.611Z,97460.31
2023-03-16T09:44:31.242Z,97462.25
2023-03-16T09:46:58.075Z,97474.28
2023-03-16T09:49:24.695Z,97456.56
2023-03-16T09:51:51.102Z,97458.66
2023-03-16T09:54:23.228Z,97474.56
2023-03-16T09:56:49.785Z,97448.81
2023-03-16T09:59:16.208Z,97465.81
2023-03-16T10:02:01.594Z,97470.41
2023-03-16T10:04:37.831Z,97462.13
2023-03-16T10:07:05.050Z,97446.31
2023-03-16T10:09:36.138Z,97464.53
2023-03-16T10:12:03.088Z,97474.19
2023-03-16T10:14:32.508Z,97454.59
2023-03-16T10:17:00.935Z,97460.75
2023-03-16T10:19:30.443Z,97463.50
2023-03-16T10:21:57.106Z,97456.41
2023-03-16T10:24:45.069Z,97419.31
2023-03-16T10:27:23.089Z,97449.47
2023-03-16T10:29:49.531Z,97440.91
2023-03-16T10:32:16.635Z,97426.13
2023-03-16T10:34:48.699Z,97406.00
2023-03-16T10:37:15.151Z,97444.03
2023-03-16T10:39:41.599Z,97439.53
2023-03-16T10:42:09.749Z,97428.41
2023-03-16T10:44:39.267Z,97404.94
2023-03-16T10:47:06.009Z,97417.72
2023-03-16T10:49:36.736Z,97433.41
2023-03-16T10:52:07.048Z,97430.56
2023-03-16T10:54:33.973Z,97416.72
2023-03-16T10:57:00.425Z,97429.53
2023-03-16T10:59:33.825Z,97418.13
2023-03-16T11:02:05.306Z,97424.72
2023-03-16T11:04:32.455Z,97397.88
2023-03-16T11:06:58.899Z,97406.59
2023-03-16T11:09:32.100Z,97406.94
2023-03-16T11:12:00.268Z,97395.44
2023-03-16T11:14:27.401Z,97376.63
2023-03-16T11:17:07.330Z,97389.84
2023-03-16T11:19:34.110Z,97386.88
2023-03-16T11:22:00.483Z,97387.34
2023-03-16T11:24:45.372Z,97372.03
2023-03-16T11:27:15.577Z,97382.50
2023-03-16T11:29:46.158Z,97368.13
2023-03-16T11:32:15.392Z,97370.63
2023-03-16T11:34:41.947Z,97374.00
2023-03-16T11:37:26.963Z,97360.16
2023-03-16T11:40:12.999Z,97359.19
2023-03-16T11:42:41.936Z,97368.25
2023-03-16T11:45:11.290Z,97367.22
2023-03-16T11:47:53.995Z,97368.47
2023-03-16T11:50:25.595Z,97328.81
2023-03-16T11:52:51.983Z,97338.25
2023-03-16T11:55:18.890Z,97322.22
2023-03-16T11:57:51.989Z,97340.94
2023-03-16T12:00:20.883Z,97332.94
2023-03-16T12:03:10.838Z,97334.81
2023-03-16T12:05:39.705Z,97341.47
2023-03-16T12:08:23.908Z,97363.75
2023-03-16T12:10:53.386Z,97330.41
2023-03-16T12:13:24.903Z,97327.25
2023-03-16T12:15:54.888Z,97324.31
2023-03-16T12:18:26.309Z,97327.50
2023-03-16T12:20:57.855Z,97323.53
2023-03-16T12:23:27.858Z,97338.25
2023-03-16T12:25:55.792Z,97304.09
2023-03-16T12:28:27.943Z,97318.13
2023-03-16T12:30:54.345Z,97314.09
2023-03-16T12:33:24.404Z,97309.00
2023-03-16T12:35:50.796Z,97325.09
2023-03-16T12:38:29.571Z,97317.34
2023-03-16T12:40:58.837Z,97301.75
2023-03-16T12:43:31.891Z,97333.97
2023-03-16T12:46:20.863Z,97276.78
2023-03-16T12:48:47.908Z,97282.16
2023-03-16T12:51:14.334Z,97284.00
2023-03-16T12:53:40.708Z,97297.06
2023-03-16T12:56:07.263Z,97286.97
2023-03-16T12:58:33.670Z,97284.81
2023-03-16T13:01:00.312Z,97279.34
2023-03-16T13:03:26.910Z,97271.88
2023-03-16T13:05:57.378Z,97248.81
2023-03-16T13:08:23.796Z,97274.56
2023-03-16T13:11:03.893Z,97266.47
2023-03-16T13:13:30.433Z,97247.13
2023-03-16T13:16:07.820Z,97263.03
2023-03-16T13:18:35.745Z,97228.16
2023-03-16T13:21:13.254Z,97232.38
2023-03-16T13:23:59.836Z,97238.91
2023-03-16T13:26:31.230Z,97297.44
2023-03-16T13:28:57.750Z,97263.88
2023-03-16T13:31:24.761Z,97237.78
2023-03-16T13:33:53.822Z,97243.72
2023-03-16T13:36:21.688Z,97238.06
2023-03-16T13:39:01.792Z,97260.66
2023-03-16T13:41:29.705Z,97266.56
2023-03-16T13:43:56.168Z,97205.03
2023-03-16T13:46:27.748Z,97226.16
2023-03-16T13:48:54.194Z,97227.09
2023-03-16T13:51:21.147Z,97218.50
2023-03-16T13:53:48.712Z,97223.34
2023-03-16T13:56:15.278Z,97210.75
2023-03-16T13:58:43.178Z,97226.53
2023-03-16T14:01:36.091Z,97238.66
2023-03-16T14:04:04.651Z,97228.19
2023-03-16T14:06:31.442Z,97203.47
2023-03-16T14:09:02.642Z,97224.34
2023-03-16T14:11:29.199Z,97198.78
2023-03-16T14:13:57.045Z,97229.38
2023-03-16T14:16:24.487Z,97219.78
2023-03-16T14:19:08.288Z,97217.69
2023-03-16T14:21:34.752Z,97201.75
2023-03-16T14:24:04.874Z,97211.72
2023-03-16T14:26:43.720Z,97195.56
2023-03-16T14:29:25.542Z,97214.06
2023-03-16T14:31:52.652Z,97194.41
2023-03-16T14:34:26.746Z,97219.75
2023-03-16T14:36:53.179Z,97216.22
2023-03-16T14:39:20.103Z,97214.34
2023-03-16T14:41:50.065Z,97200.41
2023-03-16T14:44:23.303Z,97196.66
2023-03-16T14:46:51.364Z,97171.13
2023-03-16T14:49:27.768Z,97165.16
2023-03-16T14:51:55.603Z,97196.34
2023-03-16T14:54:22.492Z,97189.41
2023-03-16T14:56:53.638Z,97208.75
2023-03-16T14:59:20.593Z,97199.38
2023-03-16T15:01:47.231Z,97191.28
2023-03-16T15:04:17.742Z,97182.69
2023-03-16T15:06:44.148Z,97185.69
2023-03-16T15:09:31.237Z,97212.84
2023-03-16T15:11:57.720Z,97195.16
2023-03-16T15:14:24.107Z,97175.81
2023-03-16T15:16:50.487Z,97193.28
2023-03-16T15:19:16.896Z,97192.69
2023-03-16T15:21:43.354Z,97157.50
2023-03-16T15:24:11.549Z,97180.59
2023-03-16T15:26:38.006Z,97188.44
2023-03-16T15:29:06.304Z,97171.53
2023-03-16T15:31:32.820Z,97165.94
2023-03-16T15:33:59.390Z,97148.19
2023-03-16T15:36:26.517Z,97152.50
2023-03-16T15:38:53.275Z,97152.78
2023-03-16T15:41:19.764Z,97137.75
2023-03-16T15:43:46.118Z,97131.28
2023-03-16T15:46:12.942Z,97101.47
2023-03-16T15:48:40.091Z,97129.69
2023-03-16T15:51:07.741Z,97128.84
2023-03-16T15:53:41.460Z,97139.59
2023-03-16T15:56:11.233Z,97111.97
2023-03-16T15:58:37.738Z,97129.69
2023-03-16T16:01:04.442Z,97132.91
2023-03-16T16:03:31.019Z,97122.72
2023-03-16T16:05:57.504Z,97142.84
2023-03-16T16:08:24.026Z,97123.53
2023-03-16T16:10:50.459Z,97145.25
2023-03-16T16:13:31.177Z,97104.22
2023-03-16T16:16:04.318Z,97110.91
2023-03-16T16:18:31.434Z,97121.09
2023-03-16T16:20:58.222Z,97126.16
2023-03-16T16:23:24.776Z,97126.16
2023-03-16T16:25:51.783Z,97107.13
2023-03-16T16:28:19.508Z,97128.03
2023-03-16T16:30:46.025Z,97146.00
2023-03-16T16:33:24.899Z,97132.28
2023-03-16T16:35:52.081Z,97120.50
2023-03-16T16:38:18.598Z,97123.94
2023-03-16T16:40:45.008Z,97121.50
2023-03-16T16:43:20.623Z,97122.28
2023-03-16T16:45:47.468Z,97133.19
2023-03-16T16:48:20.931Z,97134.28
2023-03-16T16:50:47.483Z,97136.38
2023-03-16T16:53:16.721Z,97135.81
2023-03-16T16:55:43.121Z,97133.88
2023-03-16T16:58:18.520Z,97149.06
2023-03-16T17:00:54.813Z,97152.75
2023-03-16T17:03:22.795Z,97140.38
2023-03-16T17:05:49.186Z,97150.53
2023-03-16T17:08:16.826Z,97131.19
2023-03-16T17:10:43.320Z,97140.22
2023-03-16T17:13:17.909Z,97146.78
2023-03-16T17:15:44.505Z,97131.72
2023-03-16T17:18:11.255Z,97136.66
2023-03-16T17:20:37.648Z,97161.00
2023-03-16T17:23:04.831Z,97161.41
2023-03-16T17:25:41.885Z,97151.38
2023-03-16T17:28:08.378Z,97178.00
2023-03-16T17:30:34.932Z,97157.41
2023-03-16T17:33:04.834Z,97145.31
2023-03-16T17:35:31.776Z,97155.69
2023-03-16T17:37:58.449Z,97153.88
2023-03-16T17:40:24.899Z,97151.66
2023-03-16T17:42:51.360Z,97163.47
2023-03-16T17:45:20.057Z,97176.94
2023-03-16T17:47:46.611Z,97156.66
2023-03-16T17:50:23.555Z,97173.63
2023-03-16T17:52:50.605Z,97159.00
2023-03-16T17:55:17.236Z,97161.88
2023-03-16T17:57:43.707Z,97155.34
2023-03-16T18:00:24.318Z,97181.34
2023-03-16T18:02:51.792Z,97166.22
2023-03-16T18:05:19.106Z,97136.28
2023-03-16T18:07:45.873Z,97149.75
2023-03-16T18:10:19.890Z,97132.22
2023-03-16T18:12:46.311Z,97137.78
2023-03-16T18:15:16.292Z,97130.75
2023-03-16T18:17:42.742Z,97144.09
2023-03-16T18:20:22.395Z,97137.88
2023-03-16T18:22:49.043Z,97146.09
2023-03-16T18:25:25.023Z,97147.72
2023-03-16T18:27:51.381Z,97140.00
2023-03-16T18:30:18.794Z,97142.78
2023-03-16T18:32:45.833Z,97125.34
2023-03-16T18:35:15.649Z,97139.22
2023-03-16T18:37:42.084Z,97142.91
2023-03-16T18:40:10.798Z,97151.59
2023-03-16T18:42:37.791Z,97125.25
2023-03-16T18:45:04.504Z,97135.31
2023-03-16T18:47:31.039Z,97126.88
2023-03-16T18:49:57.441Z,97102.97
2023-03-16T18:52:24.742Z,97134.84
2023-03-16T18:54:51.512Z,97127.69
2023-03-16T18:57:25.299Z,97129.97
2023-03-16T18:59:52.770Z,97119.13
2023-03-16T19:02:25.329Z,97115.53
2023-03-16T19:04:52.301Z,97105.63
2023-03-16T19:07:23.142Z,97083.66
2023-03-16T19:09:49.616Z,97110.22
2023-03-16T19:12:17.069Z,97112.84
2023-03-16T19:14:43.445Z,97097.75
2023-03-16T19:17:09.860Z,97119.50
2023-03-16T19:19:36.272Z,97130.28
2023-03-16T19:22:05.709Z,97111.66
2023-03-16T19:24:34.481Z,97116.72
2023-03-16T19:27:01.039Z,97130.06
2023-03-16T19:29:33.917Z,97109.56
2023-03-16T19:32:00.547Z,97132.16
2023-03-16T19:34:27.142Z,97119.78
2023-03-16T19:36:53.552Z,97118.59
2023-03-16T19:39:20.001Z,97110.59
2023-03-16T19:41:47.321Z,97131.03
2023-03-16T19:44:17.443Z,97151.66
2023-03-16T19:46:44.020Z,97114.06
2023-03-16T19:49:28.619Z,97139.59
2023-03-16T19:51:55.660Z,97119.97
2023-03-16T19:54:22.729Z,97082.63
2023-03-16T19:56:49.395Z,97102.22
2023-03-16T19:59:15.820Z,97100.13
2023-03-16T20:01:42.360Z,97112.06
2023-03-16T20:04:17.486Z,97112.78
2023-03-16T20:06:44.631Z,97091.06
2023-03-16T20:09:11.033Z,97135.16
2023-03-16T20:11:37.844Z,97099.03
2023-03-16T20:14:04.224Z,97100.44
2023-03-16T20:16:34.669Z,97091.19
2023-03-16T20:19:02.150Z,97108.88
2023-03-16T20:21:28.765Z,97107.09
2023-03-16T20:23:55.234Z,97093.19
2023-03-16T20:26:28.659Z,97108.34
2023-03-16T20:28:55.130Z,97102.44
2023-03-16T20:31:24.624Z,97106.00
2023-03-16T20:33:51.562Z,97124.78
2023-03-16T20:36:18.147Z,97118.78
2023-03-16T20:38:44.607Z,97098.63
2023-03-16T20:41:16.454Z,97106.81
2023-03-16T20:43:42.888Z,97100.84
2023-03-16T20:46:10.082Z,97093.31
2023-03-16T20:48:36.678Z,97104.81
2023-03-16T20:51:03.542Z,97073.25
2023-03-16T20:53:29.993Z,97103.94
2023-03-16T20:55:56.481Z,97076.66
2023-03-16T20:58:23.806Z,97095.59
2023-03-16T21:00:50.514Z,97040.03
2023-03-16T21:03:21.817Z,97079.88
2023-03-16T21:05:48.607Z,97105.44
2023-03-16T21:08:15.154Z,97078.59
2023-03-16T21:10:42.009Z,97082.44
2023-03-16T21:13:14.867Z,97099.69
2023-03-16T21:15:41.266Z,97077.00
2023-03-16T21:18:10.425Z,97067.88
2023-03-16T21:20:36.788Z,97081.44
2023-03-16T21:23:03.163Z,97077.63
2023-03-16T21:25:34.568Z,97087.78
2023-03-16T21:28:02.168Z,97103.03
2023-03-16T21:30:29.576Z,97086.97
2023-03-16T21:32:56.117Z,97069.66
2023-03-16T21:35:24.116Z,97097.28
2023-03-16T21:37:50.626Z,97085.16
2023-03-16T21:40:17.760Z,97062.41
2023-03-16T21:42:44.360Z,97078.00
2023-03-16T21:45:10.998Z,97042.19
2023-03-16T21:47:37.419Z,97046.13
2023-03-16T21:50:09.719Z,97071.19
2023-03-16T21:52:36.061Z,97064.72
2023-03-16T21:55:03.336Z,97079.84
2023-03-16T21:57:29.813Z,97080.41
2023-03-16T21:59:56.200Z,97049.34
2023-03-16T22:02:23.393Z,97082.47
2023-03-16T22:04:50.306Z,97049.59
2023-03-16T22:07:16.676Z,97061.81
2023-03-16T22:09:43.106Z,97068.75
2023-03-16T22:12:10.376Z,97094.59
2023-03-16T22:14:36.947Z,97045.31
2023-03-16T22:17:03.542Z,97057.22
2023-03-16T22:19:29.968Z,97052.91
2023-03-16T22:21:56.514Z,97076.25
2023-03-16T22:24:23.709Z,97073.94
2023-03-16T22:26:50.318Z,97032.22
2023-03-16T22:29:27.028Z,97054.75
2023-03-16T22:31:55.988Z,97068.81
2023-03-16T22:34:33.020Z,97077.22
2023-03-16T22:36:59.512Z,97037.06
2023-03-16T22:39:25.951Z,97077.94
2023-03-16T22:41:52.361Z,97060.13
2023-03-16T22:44:22.416Z,97052.28
2023-03-16T22:46:49.128Z,97051.75
2023-03-16T22:49:23.216Z,97059.16
2023-03-16T22:51:49.980Z,97067.69
2023-03-16T22:54:16.843Z,97071.34
2023-03-16T22:56:44.212Z,97048.03
2023-03-16T22:59:14.848Z,97057.63
2023-03-16T23:01:41.970Z,97049.97
2023-03-16T23:04:15.134Z,97057.03
2023-03-16T23:06:41.850Z,97051.69
2023-03-16T23:09:09.526Z,97053.38
2023-03-16T23:11:35.911Z,97029.31
2023-03-16T23:14:02.483Z,97030.22
2023-03-16T23:16:29.897Z,97036.41
2023-03-16T23:18:56.387Z,97020.47
2023-03-16T23:21:23.312Z,97032.59
2023-03-16T23:24:02.599Z,97048.00
2023-03-16T23:26:30.221Z,97049.72
2023-03-16T23:28:57.123Z,97028.16
2023-03-16T23:31:23.839Z,97027.06
2023-03-16T23:33:50.292Z,97017.72
2023-03-16T23:36:16.679Z,97025.41
2023-03-16T23:38:43.189Z,97035.09
2023-03-16T23:41:10.398Z,97036.50
2023-03-16T23:43:37.233Z,97029.38
2023-03-16T23:46:03.670Z,97033.78
2023-03-16T23:48:30.221Z,97033.72
2023-03-16T23:50:56.733Z,97033.47
2023-03-16T23:53:23.222Z,97031.25
2023-03-16T23:55:49.851Z,97038.19
2023-03-16T23:58:16.299Z,97001.25
